createdAt,value
2023-05-23T00:01:43.440Z,15.60
2023-05-23T00:04:17.859Z,15.60
2023-05-23T00:06:50.844Z,15.60
2023-05-23T00:09:21.272Z,15.60
2023-05-23T00:11:49.318Z,15.60
2023-05-23T00:14:22.005Z,15.60
2023-05-23T00:16:51.866Z,15.60
2023-05-23T00:19:23.181Z,15.70
2023-05-23T00:21:53.822Z,15.60
2023-05-23T00:24:24.032Z,15.50
2023-05-23T00:26:52.417Z,15.50
2023-05-23T00:29:22.468Z,15.50
2023-05-23T00:31:51.708Z,15.40
2023-05-23T00:34:19.992Z,15.40
2023-05-23T00:36:50.440Z,15.50
2023-05-23T00:39:21.240Z,15.40
2023-05-23T00:41:55.540Z,15.40
2023-05-23T00:44:29.197Z,15.40
2023-05-23T00:46:58.548Z,15.40
2023-05-23T00:49:29.248Z,15.40
2023-05-23T00:51:58.049Z,15.40
2023-05-23T00:54:31.267Z,15.40
2023-05-23T00:57:02.026Z,15.40
2023-05-23T00:59:32.711Z,15.40
2023-05-23T01:02:02.540Z,15.40
2023-05-23T01:04:34.207Z,15.30
2023-05-23T01:07:03.913Z,15.30
2023-05-23T01:09:38.596Z,15.30
2023-05-23T01:12:23.237Z,15.30
2023-05-23T01:14:59.686Z,15.30
2023-05-23T01:17:42.289Z,15.30
2023-05-23T01:20:13.174Z,15.30
2023-05-23T01:23:07.699Z,15.20
2023-05-23T01:26:09.675Z,15.30
2023-05-23T01:28:47.233Z,15.30
2023-05-23T01:31:17.459Z,15.20
2023-05-23T01:33:46.955Z,15.20
2023-05-23T01:36:16.172Z,15.20
2023-05-23T01:38:44.354Z,15.10
2023-05-23T01:41:15.793Z,15.10
2023-05-23T01:43:52.781Z,15.00
2023-05-23T01:46:26.011Z,15.00
2023-05-23T01:48:57.958Z,15.00
2023-05-23T01:51:27.303Z,15.00
2023-05-23T01:54:06.139Z,14.90
2023-05-23T01:56:36.458Z,15.00
2023-05-23T01:59:10.673Z,14.90
2023-05-23T02:01:43.258Z,14.90
2023-05-23T02:04:14.133Z,14.90
2023-05-23T02:06:47.740Z,14.90
2023-05-23T02:09:21.764Z,14.80
2023-05-23T02:11:49.925Z,14.80
2023-05-23T02:14:22.922Z,14.80
2023-05-23T02:17:02.378Z,14.80
2023-05-23T02:20:06.490Z,14.70
2023-05-23T02:22:34.919Z,14.70
2023-05-23T02:27:38.772Z,14.70
2023-05-23T02:30:13.150Z,14.70
2023-05-23T02:32:43.342Z,14.70
2023-05-23T02:35:11.729Z,14.70
2023-05-23T02:37:39.835Z,14.70
2023-05-23T02:40:15.549Z,14.70
2023-05-23T02:42:47.389Z,14.60
2023-05-23T02:45:16.927Z,14.60
2023-05-23T02:47:59.463Z,14.60
2023-05-23T02:50:27.941Z,14.70
2023-05-23T02:53:28.863Z,14.70
2023-05-23T02:56:01.115Z,14.60
2023-05-23T02:58:30.696Z,14.70
2023-05-23T03:01:02.423Z,14.70
2023-05-23T03:03:37.139Z,14.70
2023-05-23T03:06:07.477Z,14.70
2023-05-23T03:08:35.568Z,14.70
2023-05-23T03:11:06.703Z,14.60
2023-05-23T03:13:38.487Z,14.60
2023-05-23T03:16:15.519Z,14.70
2023-05-23T03:18:46.159Z,14.70
2023-05-23T03:21:18.093Z,14.70
2023-05-23T03:23:46.553Z,14.70
2023-05-23T03:26:18.183Z,14.60
2023-05-23T03:28:48.105Z,14.60
2023-05-23T03:31:20.886Z,14.60
2023-05-23T03:33:49.129Z,14.50
2023-05-23T03:36:26.018Z,14.50
2023-05-23T03:39:05.677Z,14.50
2023-05-23T03:41:37.127Z,14.50
2023-05-23T03:44:11.052Z,14.60
2023-05-23T03:46:45.322Z,14.50
2023-05-23T03:49:56.612Z,14.50
2023-05-23T03:52:28.156Z,14.40
2023-05-23T03:54:57.507Z,14.20
2023-05-23T03:57:28.001Z,14.20
2023-05-23T03:59:59.623Z,14.30
2023-05-23T04:02:29.176Z,14.50
2023-05-23T04:04:58.040Z,14.60
2023-05-23T04:07:27.530Z,14.70
2023-05-23T04:09:57.734Z,14.80
2023-05-23T04:12:25.976Z,14.90
2023-05-23T04:14:57.309Z,14.90
2023-05-23T04:17:33.515Z,14.90
2023-05-23T04:20:03.086Z,14.80
2023-05-23T04:22:32.724Z,14.80
2023-05-23T04:27:27.709Z,14.80
2023-05-23T04:32:35.833Z,14.80
2023-05-23T04:35:10.662Z,14.80
2023-05-23T04:37:49.883Z,14.80
2023-05-23T04:40:38.083Z,14.80
2023-05-23T04:43:10.018Z,14.80
2023-05-23T04:45:54.349Z,14.90
2023-05-23T04:48:43.036Z,14.80
2023-05-23T04:51:14.131Z,14.90
2023-05-23T04:53:44.579Z,14.80
2023-05-23T04:56:14.326Z,14.70
2023-05-23T04:58:54.642Z,14.70
2023-05-23T05:01:25.197Z,14.70
2023-05-23T05:04:38.996Z,14.80
2023-05-23T05:10:11.720Z,14.80
2023-05-23T05:12:39.961Z,14.80
2023-05-23T05:15:12.360Z,14.80
2023-05-23T05:17:43.187Z,14.80
2023-05-23T05:20:19.389Z,14.80
2023-05-23T05:23:12.262Z,14.80
2023-05-23T05:25:44.489Z,14.80
2023-05-23T05:32:13.144Z,14.90
2023-05-23T05:34:49.728Z,14.90
2023-05-23T05:43:53.447Z,15.00
2023-05-23T05:46:35.028Z,15.00
2023-05-23T05:49:07.136Z,14.90
2023-05-23T05:55:58.966Z,15.00
2023-05-23T05:59:06.825Z,15.00
2023-05-23T06:01:41.941Z,14.90
2023-05-23T06:04:12.970Z,14.90
2023-05-23T06:06:41.649Z,14.80
2023-05-23T06:09:16.268Z,14.80
2023-05-23T06:11:47.750Z,14.90
2023-05-23T06:14:16.314Z,14.90
2023-05-23T06:16:46.660Z,14.90
2023-05-23T06:19:17.121Z,14.80
2023-05-23T06:21:54.557Z,14.70
2023-05-23T06:24:22.895Z,14.70
2023-05-23T06:26:52.499Z,14.60
2023-05-23T06:29:21.923Z,14.70
2023-05-23T06:32:23.208Z,14.60
2023-05-23T06:34:52.479Z,14.60
2023-05-23T06:37:21.752Z,14.70
2023-05-23T06:39:50.369Z,14.70
2023-05-23T06:42:19.944Z,14.90
2023-05-23T06:44:48.215Z,14.90
2023-05-23T06:47:24.276Z,14.90
2023-05-23T06:52:47.092Z,14.90
2023-05-23T06:55:18.749Z,15.20
2023-05-23T06:57:53.700Z,16.70
2023-05-23T07:00:22.136Z,19.70
2023-05-23T07:02:52.154Z,20.00
2023-05-23T07:05:24.852Z,18.20
2023-05-23T07:07:53.503Z,17.50
2023-05-23T07:10:29.930Z,16.90
2023-05-23T07:13:02.564Z,16.60
2023-05-23T07:15:33.037Z,16.50
2023-05-23T07:18:16.972Z,16.30
2023-05-23T07:21:19.861Z,16.20
2023-05-23T07:23:48.875Z,15.90
2023-05-23T07:26:17.258Z,15.70
2023-05-23T07:28:45.532Z,15.90
2023-05-23T07:31:40.121Z,16.10
2023-05-23T07:34:10.072Z,16.10
2023-05-23T07:36:40.977Z,16.00
2023-05-23T07:39:09.861Z,16.10
2023-05-23T07:41:37.911Z,16.10
2023-05-23T07:44:07.187Z,16.30
2023-05-23T07:46:35.551Z,16.40
2023-05-23T07:49:04.928Z,16.50
2023-05-23T07:51:40.141Z,16.70
2023-05-23T07:54:09.871Z,16.60
2023-05-23T07:56:39.585Z,16.40
2023-05-23T07:59:08.847Z,16.30
2023-05-23T08:01:37.641Z,16.20
2023-05-23T08:04:06.547Z,16.20
2023-05-23T08:06:38.620Z,16.20
2023-05-23T08:09:08.044Z,16.00
2023-05-23T08:11:36.147Z,16.10
2023-05-23T08:14:12.216Z,16.20
2023-05-23T08:16:42.733Z,16.30
2023-05-23T08:19:51.152Z,16.20
2023-05-23T08:22:20.866Z,16.40
2023-05-23T08:24:50.154Z,16.40
2023-05-23T08:27:18.360Z,16.30
2023-05-23T08:29:46.555Z,16.30
2023-05-23T08:32:16.028Z,16.40
2023-05-23T08:34:45.194Z,16.30
2023-05-23T08:37:17.973Z,16.20
2023-05-23T08:39:47.898Z,16.10
2023-05-23T08:42:16.099Z,16.10
2023-05-23T08:44:44.740Z,16.20
2023-05-23T08:47:16.121Z,16.20
2023-05-23T08:49:47.206Z,16.10
2023-05-23T08:52:21.551Z,16.20
2023-05-23T08:54:52.695Z,16.30
2023-05-23T08:57:21.056Z,16.30
2023-05-23T08:59:53.072Z,16.20
2023-05-23T09:02:33.853Z,15.80
2023-05-23T09:05:41.000Z,15.80
2023-05-23T09:08:24.596Z,15.80
2023-05-23T09:10:56.543Z,16.00
2023-05-23T09:13:43.217Z,16.10
2023-05-23T09:19:55.963Z,16.20
2023-05-23T09:22:30.292Z,16.00
2023-05-23T09:25:00.132Z,16.00
2023-05-23T09:27:32.601Z,16.00
2023-05-23T09:30:09.946Z,16.10
2023-05-23T09:32:38.308Z,16.20
2023-05-23T09:35:13.258Z,16.10
2023-05-23T09:38:05.556Z,16.10
2023-05-23T09:40:41.200Z,16.10
2023-05-23T09:43:14.115Z,16.20
2023-05-23T09:45:44.482Z,16.20
2023-05-23T09:48:14.881Z,16.10
2023-05-23T09:53:59.977Z,15.90
2023-05-23T10:03:04.920Z,15.70
2023-05-23T10:05:39.554Z,15.50
2023-05-23T10:08:19.684Z,15.60
2023-05-23T10:11:44.750Z,15.60
2023-05-23T10:14:16.576Z,15.70
2023-05-23T10:20:38.221Z,15.70
2023-05-23T10:23:15.680Z,15.90
2023-05-23T10:25:56.113Z,16.10
2023-05-23T10:28:28.818Z,16.10
2023-05-23T10:31:12.500Z,16.00
2023-05-23T10:33:51.448Z,15.90
2023-05-23T10:36:27.544Z,15.60
2023-05-23T10:39:23.021Z,15.60
2023-05-23T10:41:57.955Z,15.50
2023-05-23T10:44:55.050Z,15.40
2023-05-23T10:47:36.364Z,15.60
2023-05-23T10:50:08.466Z,15.60
2023-05-23T10:52:42.418Z,15.80
2023-05-23T10:55:23.119Z,15.90
2023-05-23T10:58:12.349Z,15.90
2023-05-23T11:00:55.271Z,15.80
2023-05-23T11:03:40.113Z,15.90
2023-05-23T11:07:04.820Z,15.80
2023-05-23T11:12:41.822Z,15.60
2023-05-23T11:18:21.043Z,15.70
2023-05-23T11:21:15.684Z,15.60
2023-05-23T11:24:31.876Z,15.30
2023-05-23T11:30:21.227Z,15.20
2023-05-23T11:32:53.561Z,15.10
2023-05-23T11:35:36.894Z,15.00
2023-05-23T11:38:41.806Z,14.70
2023-05-23T11:41:41.765Z,14.60
2023-05-23T11:44:18.929Z,14.60
2023-05-23T11:47:00.915Z,14.60
2023-05-23T11:49:31.638Z,14.80
2023-05-23T11:52:00.892Z,14.60
2023-05-23T11:54:30.877Z,14.70
2023-05-23T11:57:02.803Z,14.60
2023-05-23T11:59:32.982Z,14.80
2023-05-23T12:04:55.410Z,15.30
2023-05-23T12:07:24.977Z,15.60
2023-05-23T12:09:57.437Z,16.20
2023-05-23T12:12:26.742Z,16.40
2023-05-23T12:15:02.424Z,16.40
2023-05-23T12:17:33.887Z,15.90
2023-05-23T12:20:15.652Z,15.90
2023-05-23T12:22:43.915Z,15.80
2023-05-23T12:25:48.327Z,15.80
2023-05-23T12:28:25.208Z,16.10
2023-05-23T12:30:54.853Z,16.00
2023-05-23T12:33:28.008Z,16.00
2023-05-23T12:35:58.421Z,16.00
2023-05-23T12:39:04.948Z,16.00
2023-05-23T12:41:36.710Z,15.70
2023-05-23T12:44:12.397Z,15.60
2023-05-23T12:46:42.361Z,15.70
2023-05-23T12:49:19.387Z,15.40
2023-05-23T12:52:04.157Z,15.30
2023-05-23T12:54:50.062Z,15.10
2023-05-23T13:00:57.730Z,14.90
2023-05-23T13:03:47.491Z,15.00
2023-05-23T13:09:14.028Z,15.00
2023-05-23T13:11:44.785Z,14.80
2023-05-23T13:14:14.838Z,14.50
2023-05-23T13:16:43.370Z,14.50
2023-05-23T13:19:16.136Z,14.40
2023-05-23T13:21:45.677Z,14.50
2023-05-23T13:24:14.745Z,14.20
2023-05-23T13:26:49.196Z,14.20
2023-05-23T13:29:17.440Z,14.40
2023-05-23T13:31:49.537Z,14.50
2023-05-23T13:34:23.013Z,14.40
2023-05-23T13:36:51.171Z,14.50
2023-05-23T13:39:25.073Z,14.40
2023-05-23T13:41:56.950Z,14.40
2023-05-23T13:44:25.364Z,14.50
2023-05-23T13:47:12.467Z,14.10
2023-05-23T13:49:50.365Z,14.10
2023-05-23T13:52:22.585Z,14.10
2023-05-23T13:54:55.134Z,14.30
2023-05-23T13:57:27.833Z,14.40
2023-05-23T14:00:03.632Z,14.50
2023-05-23T14:05:27.791Z,14.90
2023-05-23T14:08:01.716Z,14.70
2023-05-23T14:10:33.482Z,14.80
2023-05-23T14:13:04.011Z,14.70
2023-05-23T14:15:43.989Z,14.60
2023-05-23T14:18:30.483Z,14.60
2023-05-23T14:21:03.703Z,14.50
2023-05-23T14:23:35.729Z,14.60
2023-05-23T14:26:04.033Z,14.40
2023-05-23T14:28:32.851Z,14.40
2023-05-23T14:33:33.123Z,14.20
2023-05-23T14:36:03.054Z,14.10
2023-05-23T14:38:56.272Z,14.10
2023-05-23T14:41:25.410Z,14.20
2023-05-23T14:47:27.245Z,14.30
2023-05-23T14:49:56.125Z,14.40
2023-05-23T14:52:27.256Z,14.30
2023-05-23T14:57:28.744Z,14.40
2023-05-23T14:59:58.285Z,14.40
2023-05-23T15:02:36.760Z,14.40
2023-05-23T15:05:05.155Z,14.40
2023-05-23T15:07:51.158Z,14.30
2023-05-23T15:11:03.136Z,14.30
2023-05-23T15:14:04.145Z,14.20
2023-05-23T15:16:35.145Z,14.00
2023-05-23T15:22:39.743Z,13.70
2023-05-23T15:25:15.861Z,13.60
2023-05-23T15:28:34.959Z,13.30
2023-05-23T15:31:18.991Z,13.40
2023-05-23T15:34:07.734Z,13.30
2023-05-23T15:36:59.953Z,13.50
2023-05-23T15:39:29.962Z,13.50
2023-05-23T15:42:00.327Z,13.20
2023-05-23T15:48:10.651Z,13.50
2023-05-23T15:50:47.136Z,13.50
2023-05-23T15:53:18.112Z,13.80
2023-05-23T15:55:47.341Z,13.70
2023-05-23T15:58:18.268Z,13.70
2023-05-23T16:00:47.495Z,13.80
2023-05-23T16:07:01.369Z,14.20
2023-05-23T16:09:48.632Z,14.40
2023-05-23T16:12:19.281Z,14.30
2023-05-23T16:18:24.037Z,14.50
2023-05-23T16:21:12.859Z,14.70
2023-05-23T16:23:43.673Z,14.70
2023-05-23T16:26:12.717Z,14.30
2023-05-23T16:28:44.518Z,14.00
2023-05-23T16:31:19.065Z,14.00
2023-05-23T16:33:52.748Z,13.90
2023-05-23T16:36:22.149Z,13.90
2023-05-23T16:38:50.302Z,13.60
2023-05-23T16:41:19.704Z,13.60
2023-05-23T16:43:53.105Z,13.50
2023-05-23T16:46:25.462Z,13.40
2023-05-23T16:48:54.403Z,13.50
2023-05-23T16:51:28.349Z,13.50
2023-05-23T16:53:58.615Z,13.50
2023-05-23T16:56:29.235Z,13.50
2023-05-23T16:58:58.687Z,13.40
2023-05-23T17:01:37.124Z,13.50
2023-05-23T17:04:05.942Z,13.50
2023-05-23T17:09:49.080Z,13.50
2023-05-23T17:12:18.491Z,13.50
2023-05-23T17:14:48.928Z,13.60
2023-05-23T17:17:19.761Z,13.50
2023-05-23T17:19:48.618Z,13.50
2023-05-23T17:22:17.004Z,13.40
2023-05-23T17:24:45.718Z,13.40
2023-05-23T17:27:16.396Z,13.30
2023-05-23T17:29:44.787Z,13.40
2023-05-23T17:32:13.051Z,13.30
2023-05-23T17:34:42.566Z,13.20
2023-05-23T17:37:28.788Z,13.30
2023-05-23T17:40:29.882Z,13.30
2023-05-23T17:42:58.331Z,13.40
2023-05-23T17:45:26.941Z,13.40
2023-05-23T17:48:04.212Z,13.40
2023-05-23T17:50:52.985Z,13.40
2023-05-23T17:53:37.061Z,13.20
2023-05-23T17:56:14.822Z,13.30
2023-05-23T17:58:44.672Z,13.20
2023-05-23T18:01:14.470Z,13.20
2023-05-23T18:03:42.755Z,13.30
2023-05-23T18:06:17.544Z,13.20
2023-05-23T18:08:49.035Z,13.30
2023-05-23T18:11:19.763Z,13.30
2023-05-23T18:14:03.241Z,13.30
2023-05-23T18:16:33.504Z,13.20
2023-05-23T18:19:11.021Z,13.20
2023-05-23T18:21:43.632Z,13.20
2023-05-23T18:24:13.916Z,13.10
2023-05-23T18:29:52.232Z,13.00
2023-05-23T18:32:23.639Z,12.90
2023-05-23T18:35:03.030Z,13.00
2023-05-23T18:37:36.319Z,13.00
2023-05-23T18:40:04.785Z,13.00
2023-05-23T18:42:33.077Z,12.90
2023-05-23T18:45:02.739Z,12.90
2023-05-23T18:47:30.925Z,12.80
2023-05-23T18:49:59.130Z,12.80
2023-05-23T18:52:27.493Z,12.80
2023-05-23T18:54:57.374Z,12.80
2023-05-23T18:57:26.137Z,12.70
2023-05-23T18:59:56.753Z,12.70
2023-05-23T19:02:28.480Z,12.60
2023-05-23T19:04:59.159Z,12.60
2023-05-23T19:07:34.455Z,12.60
2023-05-23T19:10:12.567Z,12.50
2023-05-23T19:12:41.618Z,12.40
2023-05-23T19:15:15.306Z,12.50
2023-05-23T19:17:47.339Z,12.40
2023-05-23T19:20:21.603Z,12.40
2023-05-23T19:22:53.398Z,12.40
2023-05-23T19:25:26.200Z,12.30
2023-05-23T19:28:05.959Z,12.30
2023-05-23T19:30:34.162Z,12.40
2023-05-23T19:33:07.878Z,12.30
2023-05-23T19:35:38.381Z,12.30
2023-05-23T19:38:07.380Z,12.20
2023-05-23T19:40:50.598Z,12.20
2023-05-23T19:43:18.792Z,12.30
2023-05-23T19:46:04.654Z,12.20
2023-05-23T19:48:32.899Z,12.30
2023-05-23T19:51:03.135Z,12.20
2023-05-23T19:53:33.639Z,12.20
2023-05-23T19:56:04.721Z,12.10
2023-05-23T19:58:36.719Z,12.10
2023-05-23T20:01:10.289Z,12.10
2023-05-23T20:03:39.946Z,12.10
2023-05-23T20:06:10.203Z,12.10
2023-05-23T20:12:04.988Z,12.00
2023-05-23T20:14:34.366Z,11.90
2023-05-23T20:17:04.274Z,11.90
2023-05-23T20:19:33.604Z,11.90
2023-05-23T20:22:02.423Z,11.90
2023-05-23T20:24:31.982Z,11.90
2023-05-23T20:27:03.543Z,11.80
2023-05-23T20:29:35.663Z,11.80
2023-05-23T20:32:03.765Z,11.70
2023-05-23T20:34:33.123Z,11.70
2023-05-23T20:37:01.648Z,11.70
2023-05-23T20:39:29.934Z,11.70
2023-05-23T20:41:59.755Z,11.60
2023-05-23T20:44:29.587Z,11.60
2023-05-23T20:46:57.738Z,11.50
2023-05-23T20:49:27.718Z,11.50
2023-05-23T20:51:56.087Z,11.50
2023-05-23T20:54:24.492Z,11.50
2023-05-23T20:56:56.453Z,11.50
2023-05-23T20:59:26.243Z,11.40
2023-05-23T21:01:55.773Z,11.40
2023-05-23T21:04:27.670Z,11.40
2023-05-23T21:06:57.047Z,11.40
2023-05-23T21:09:25.536Z,11.20
2023-05-23T21:11:55.242Z,11.30
2023-05-23T21:14:23.413Z,11.20
2023-05-23T21:16:51.623Z,11.20
2023-05-23T21:19:21.602Z,11.20
2023-05-23T21:21:53.878Z,11.10
2023-05-23T21:24:23.742Z,11.10
2023-05-23T21:26:53.532Z,11.00
2023-05-23T21:29:23.857Z,10.90
2023-05-23T21:31:51.975Z,10.90
2023-05-23T21:34:24.155Z,10.90
2023-05-23T21:36:53.936Z,10.90
2023-05-23T21:39:22.506Z,10.80
2023-05-23T21:41:53.480Z,10.80
2023-05-23T21:44:21.804Z,10.70
2023-05-23T21:46:51.198Z,10.70
2023-05-23T21:49:19.724Z,10.70
2023-05-23T21:51:49.133Z,10.60
2023-05-23T21:54:17.688Z,10.50
2023-05-23T21:56:52.281Z,10.50
2023-05-23T21:59:21.992Z,10.40
2023-05-23T22:01:51.955Z,10.40
2023-05-23T22:04:21.777Z,10.30
2023-05-23T22:06:53.677Z,10.40
2023-05-23T22:09:22.919Z,10.30
2023-05-23T22:11:52.249Z,10.20
2023-05-23T22:14:20.523Z,10.30
2023-05-23T22:16:50.694Z,10.30
2023-05-23T22:19:21.099Z,10.30
2023-05-23T22:21:55.949Z,10.20
2023-05-23T22:24:29.869Z,10.20
2023-05-23T22:27:10.132Z,10.10
2023-05-23T22:29:40.047Z,10.10
2023-05-23T22:32:19.874Z,10.00
2023-05-23T22:34:52.387Z,10.00
2023-05-23T22:37:30.307Z,10.00
2023-05-23T22:40:15.498Z,10.00
2023-05-23T22:42:50.905Z,9.90
2023-05-23T22:45:20.653Z,9.90
2023-05-23T22:47:55.093Z,9.80
2023-05-23T22:50:28.706Z,9.90
2023-05-23T22:53:00.261Z,9.90
2023-05-23T22:55:36.010Z,9.90
2023-05-23T22:58:16.960Z,9.90
2023-05-23T23:00:46.750Z,9.80
2023-05-23T23:03:20.093Z,9.80
2023-05-23T23:05:57.432Z,9.80
2023-05-23T23:08:32.986Z,9.80
2023-05-23T23:11:05.819Z,9.80
2023-05-23T23:13:39.612Z,9.80
2023-05-23T23:16:12.310Z,9.80
2023-05-23T23:18:43.972Z,9.70
2023-05-23T23:21:14.671Z,9.80
2023-05-23T23:23:46.233Z,9.70
2023-05-23T23:26:16.682Z,9.70
2023-05-23T23:28:46.996Z,9.70
2023-05-23T23:31:18.111Z,9.70
2023-05-23T23:33:59.555Z,9.70
2023-05-23T23:36:29.093Z,9.60
2023-05-23T23:38:58.796Z,9.50
2023-05-23T23:41:29.172Z,9.40
2023-05-23T23:43:59.617Z,9.40
2023-05-23T23:46:30.844Z,9.40
2023-05-23T23:48:59.334Z,9.30
2023-05-23T23:51:29.728Z,9.30
2023-05-23T23:54:02.559Z,9.20
2023-05-23T23:56:32.165Z,9.20
2023-05-23T23:59:03.034Z,9.10
